Date,TemperatureHighF,TemperatureAvgF,TemperatureLowF,DewpointHighF,DewpointAvgF,DewpointLowF,HumidityHigh,HumidityAvg,HumidityLow,PressureMaxIn,PressureMinIn,WindSpeedMaxMPH,WindSpeedAvgMPH,GustSpeedMaxMPH,PrecipitationSumIn
2013-11-1,48.0,38.2,31.0,28.0,23.7,18.0,78,57,35,30.19,29.96,6,2,16,0.02
2013-11-2,53.0,38.4,26.0,27.0,19.8,-99.9,75,51,25,30.18,29.67,7,1,27,0.00
2013-11-3,49.0,38.0,21.0,28.0,14.9,4.0,72,41,19,29.91,29.54,10,3,20,0.00
2013-11-4,35.0,26.2,21.0,14.0,8.5,4.0,68,47,34,30.15,29.90,7,2,11,0.00
2013-11-5,36.0,25.9,20.0,14.0,6.8,0.0,64,44,29,30.28,30.15,8,3,15,0.00
2013-11-6,47.0,32.3,21.0,20.0,15.4,12.0,68,52,27,30.42,30.25,6,1,11,0.00
2013-11-7,53.0,38.7,25.0,31.0,24.7,18.0,75,58,35,30.40,29.76,15,2,31,0.00
2013-11-8,54.0,46.5,31.0,27.0,22.6,18.0,65,40,24,29.93,29.69,18,6,42,0.00
2013-11-9,49.0,37.3,28.0,27.0,22.3,-99.9,79,57,40,30.22,29.92,4,1,9,0.00
2013-11-10,61.0,43.8,29.0,33.0,26.4,20.0,80,53,32,30.24,30.11,7,2,10,0.00
2013-11-11,55.0,41.0,30.0,31.0,25.3,20.0,83,55,31,30.53,30.11,7,2,12,0.00
2013-11-12,55.0,35.1,25.0,35.0,26.4,22.0,89,73,33,30.58,30.40,4,1,10,0.00
2013-11-13,55.0,39.2,32.0,36.0,29.5,25.0,83,69,37,30.39,30.06,8,1,12,0.00
2013-11-14,52.0,38.8,30.0,26.0,19.6,10.0,72,47,19,30.14,29.68,7,2,14,0.00
2013-11-15,46.0,35.1,26.0,22.0,17.1,9.0,63,49,29,29.70,29.45,9,2,15,0.00
2013-11-16,42.0,31.5,22.0,24.0,14.5,-99.9,69,52,29,29.59,29.27,15,4,35,0.00
2013-11-17,41.0,30.2,20.0,13.0,9.4,6.0,61,43,26,30.12,29.59,6,2,12,0.00
2013-11-18,51.0,34.0,21.0,20.0,16.3,11.0,69,50,28,30.18,29.93,5,1,12,0.00
2013-11-19,52.0,40.2,29.0,26.0,21.8,18.0,65,48,34,29.93,29.68,10,2,19,0.00
2013-11-20,53.0,34.8,17.0,27.0,20.5,13.0,88,60,30,30.20,29.67,8,2,19,0.00
2013-11-21,18.0,11.6,1.0,13.0,7.3,-5.0,88,83,73,30.85,30.20,3,1,7,0.01
2013-11-22,20.0,6.9,-2.0,12.0,0.8,-8.0,83,75,65,30.99,30.85,3,1,7,0.01
2013-11-23,27.0,12.2,2.0,14.0,3.1,-99.9,84,71,44,31.00,30.59,3,1,5,0.00
2013-11-24,34.0,17.7,5.0,19.0,9.3,0.0,83,70,52,30.59,30.30,5,1,7,0.01
2013-11-25,43.0,32.8,24.0,25.0,19.1,13.0,72,58,39,30.44,30.30,9,2,15,0.01
2013-11-26,44.0,30.6,18.0,25.0,19.1,13.0,79,63,43,30.47,30.30,7,1,11,0.01
2013-11-27,50.0,31.7,24.0,32.0,22.4,17.0,87,69,44,30.29,30.10,3,1,7,0.00
2013-11-28,40.0,30.4,23.0,28.0,23.9,18.0,87,77,60,30.22,30.14,3,0,6,0.00
2013-11-29,48.0,33.6,24.0,28.0,21.9,15.0,84,64,38,30.24,30.14,5,1,10,0.00
2013-11-30,47.0,34.0,26.0,25.0,19.3,-99.9,69,57,39,30.22,30.10,5,1,8,0.00